Time;durP1;ratioP1;P1;durP2;ratioP2;P2;SDS_P1;SDS_P2;PMS_P1;PMS_P2;Temp;Humidity;BMP_temperature;BMP_pressure;BME280_temperature;BME280_humidity;BME280_pressure;Samples;Min_cycle;Max_cycle;Signal;HPM_P1;HPM_P2
2023/12/07 00:01:15;;;;;;;22.05;14.77;;;17.30;99.90;;;;;;4595899;19;20034;-76
2023/12/07 00:02:50;;;;;;;21.30;13.55;;;17.30;99.90;;;;;;4596057;19;20013;-76
2023/12/07 00:04:25;;;;;;;23.10;14.68;;;17.30;99.90;;;;;;4596235;19;20003;-77
2023/12/07 00:05:59;;;;;;;20.73;13.80;;;17.30;99.90;;;;;;4594936;19;20448;-76
2023/12/07 00:07:33;;;;;;;22.45;14.25;;;17.30;99.90;;;;;;4596066;19;20007;-76
2023/12/07 00:09:09;;;;;;;21.98;15.30;;;17.30;99.90;;;;;;4596355;19;20015;-77
2023/12/07 00:10:44;;;;;;;22.95;14.10;;;17.30;99.90;;;;;;4596051;19;20002;-77
2023/12/07 00:12:19;;;;;;;22.45;13.82;;;17.30;99.90;;;;;;4596181;19;20006;-76
2023/12/07 00:13:55;;;;;;;24.27;16.25;;;17.30;99.90;;;;;;4596297;19;20305;-76
2023/12/07 00:15:30;;;;;;;21.63;13.75;;;17.30;99.90;;;;;;4595541;19;20074;-76
2023/12/07 00:17:04;;;;;;;21.35;14.70;;;17.30;99.90;;;;;;4595832;19;20007;-76
2023/12/07 00:18:40;;;;;;;20.08;13.95;;;17.30;99.90;;;;;;4595364;19;20010;-76
2023/12/07 00:20:14;;;;;;;19.42;13.52;;;17.30;99.90;;;;;;4596053;19;20314;-77
2023/12/07 00:21:48;;;;;;;22.38;14.55;;;17.40;99.90;;;;;;4596078;19;20316;-77
2023/12/07 00:23:24;;;;;;;23.42;15.80;;;17.30;99.90;;;;;;4595928;19;20005;-76
2023/12/07 00:24:58;;;;;;;25.42;16.58;;;17.30;99.90;;;;;;4595721;19;20002;-76
2023/12/07 00:26:32;;;;;;;24.13;16.08;;;17.40;99.90;;;;;;4594002;19;19998;-76
2023/12/07 00:28:08;;;;;;;23.48;15.18;;;17.40;99.90;;;;;;4595770;19;20019;-76
2023/12/07 00:29:42;;;;;;;22.00;13.25;;;17.30;99.90;;;;;;4595864;19;20016;-77
2023/12/07 00:31:17;;;;;;;20.40;13.45;;;17.30;99.90;;;;;;4595874;19;20003;-76
2023/12/07 00:32:52;;;;;;;19.17;12.95;;;17.30;99.90;;;;;;4595646;19;20009;-77
2023/12/07 00:34:26;;;;;;;19.00;12.93;;;17.30;99.90;;;;;;4595557;19;20373;-77
2023/12/07 00:36:01;;;;;;;22.17;13.23;;;17.30;99.90;;;;;;4594400;19;19998;-77
2023/12/07 00:37:36;;;;;;;18.13;11.82;;;17.30;99.90;;;;;;4594250;19;20077;-77
2023/12/07 00:39:10;;;;;;;20.02;12.02;;;17.20;99.90;;;;;;4594351;19;19999;-76
2023/12/07 00:40:45;;;;;;;20.83;12.88;;;17.30;99.90;;;;;;4595389;19;20316;-76
2023/12/07 00:42:20;;;;;;;18.90;12.70;;;17.30;99.90;;;;;;4594441;19;20029;-77
2023/12/07 00:43:54;;;;;;;18.83;12.93;;;17.30;99.90;;;;;;4595153;19;20420;-77
2023/12/07 00:45:28;;;;;;;17.63;12.38;;;17.20;99.90;;;;;;4594767;19;19998;-76
2023/12/07 00:47:04;;;;;;;18.10;11.85;;;17.30;99.90;;;;;;4593995;19;20086;-76
2023/12/07 00:48:40;;;;;;;17.85;11.63;;;17.30;99.90;;;;;;4595500;19;20033;-76
2023/12/07 00:50:15;;;;;;;16.55;11.82;;;17.30;99.90;;;;;;4595188;19;20425;-76
2023/12/07 00:51:52;;;;;;;17.30;11.82;;;17.30;99.90;;;;;;4595527;19;20006;-76
2023/12/07 00:53:25;;;;;;;15.80;10.70;;;17.30;99.90;;;;;;4595349;19;20001;-76
2023/12/07 00:55:00;;;;;;;19.25;13.00;;;17.30;99.90;;;;;;4595190;19;19998;-76
2023/12/07 00:56:35;;;;;;;19.90;12.88;;;17.30;99.90;;;;;;4595370;19;20299;-76
2023/12/07 00:58:09;;;;;;;18.80;13.00;;;17.30;99.90;;;;;;4595274;19;20418;-77
2023/12/07 00:59:43;;;;;;;19.92;12.82;;;17.30;99.90;;;;;;4593507;19;20033;-76
2023/12/07 01:19:08;;;;;;;18.52;11.30;;;17.30;99.90;;;;;;4576947;19;20484;-75
2023/12/07 01:20:45;;;;;;;15.38;10.73;;;17.30;99.90;;;;;;4594545;19;20006;-75
2023/12/07 01:22:20;;;;;;;13.77;9.55;;;17.30;99.90;;;;;;4594362;19;20006;-74
2023/12/07 01:23:55;;;;;;;15.15;10.38;;;17.30;99.90;;;;;;4594313;19;20318;-74
2023/12/07 01:25:31;;;;;;;14.10;10.25;;;17.30;99.90;;;;;;4594697;19;20370;-75
2023/12/07 01:27:05;;;;;;;17.38;11.23;;;17.30;99.90;;;;;;4594442;19;20003;-75
2023/12/07 01:28:39;;;;;;;15.35;11.57;;;17.30;99.90;;;;;;4594182;19;20002;-75
2023/12/07 01:30:14;;;;;;;18.08;12.35;;;17.40;99.90;;;;;;4594444;19;20091;-75
2023/12/07 01:31:48;;;;;;;16.48;12.40;;;17.30;99.90;;;;;;4594658;19;20005;-76
2023/12/07 01:33:22;;;;;;;18.13;11.98;;;17.30;99.90;;;;;;4594577;19;20069;-76
2023/12/07 01:34:58;;;;;;;14.88;9.95;;;17.30;99.90;;;;;;4594639;19;20020;-77
2023/12/07 01:36:33;;;;;;;14.70;10.50;;;17.30;99.90;;;;;;4594477;19;20031;-76
2023/12/07 01:38:07;;;;;;;16.65;10.88;;;17.30;99.90;;;;;;4594762;19;20002;-77
2023/12/07 01:39:46;;;;;;;16.08;10.23;;;17.30;99.90;;;;;;4593255;19;20367;-77
2023/12/07 01:41:20;;;;;;;15.50;10.65;;;17.30;99.90;;;;;;4594154;19;20452;-77
2023/12/07 01:42:54;;;;;;;15.65;10.38;;;17.30;99.90;;;;;;4594387;19;20035;-77
2023/12/07 01:44:29;;;;;;;15.55;10.25;;;17.30;99.90;;;;;;4594252;19;19998;-77
2023/12/07 01:46:03;;;;;;;16.05;10.45;;;17.30;99.90;;;;;;4594328;19;20002;-77
2023/12/07 01:47:38;;;;;;;14.63;10.02;;;17.30;99.90;;;;;;4594057;19;20002;-77
2023/12/07 01:49:13;;;;;;;13.90;9.52;;;17.30;99.90;;;;;;4592906;19;20078;-76
2023/12/07 01:50:48;;;;;;;14.65;10.10;;;17.30;99.90;;;;;;4593970;19;20009;-77
2023/12/07 01:52:25;;;;;;;13.98;9.50;;;17.30;99.90;;;;;;4594176;19;20074;-76
2023/12/07 01:54:01;;;;;;;14.82;9.88;;;17.30;99.90;;;;;;4593977;19;20010;-77
2023/12/07 01:55:36;;;;;;;14.55;9.70;;;17.30;99.90;;;;;;4592507;19;20445;-77
2023/12/07 01:57:11;;;;;;;15.52;10.07;;;17.30;99.90;;;;;;4593394;19;20002;-77
2023/12/07 01:58:46;;;;;;;13.82;9.57;;;17.40;99.90;;;;;;4590902;19;20007;-77
2023/12/07 02:00:21;;;;;;;14.90;10.02;;;17.30;99.90;;;;;;4594055;19;20021;-77
2023/12/07 02:01:55;;;;;;;16.13;10.88;;;17.30;99.90;;;;;;4593935;19;20310;-77
2023/12/07 02:03:31;;;;;;;14.90;10.23;;;17.40;99.90;;;;;;4594113;19;20302;-76
2023/12/07 02:05:06;;;;;;;15.55;10.23;;;17.40;99.90;;;;;;4593537;19;20047;-76
2023/12/07 02:06:39;;;;;;;14.77;10.50;;;17.40;99.90;;;;;;4592321;19;20007;-76
2023/12/07 02:08:17;;;;;;;14.48;10.48;;;17.40;99.90;;;;;;4592417;19;20421;-76
2023/12/07 02:09:51;;;;;;;12.85;9.13;;;17.40;99.90;;;;;;4593324;19;20321;-76
2023/12/07 02:11:26;;;;;;;13.43;9.23;;;17.40;99.90;;;;;;4592257;19;20002;-76
2023/12/07 02:13:02;;;;;;;14.23;9.85;;;17.40;99.90;;;;;;4593245;19;20306;-76
2023/12/07 02:14:38;;;;;;;12.77;9.10;;;17.40;99.90;;;;;;4593821;19;20073;-76
2023/12/07 02:16:22;;;;;;;13.02;8.68;;;17.40;99.90;;;;;;4593746;19;19998;-76
2023/12/07 02:18:23;;;;;;;14.50;9.27;;;17.40;99.90;;;;;;4592126;19;20010;-76
2023/12/07 02:20:12;;;;;;;13.50;9.18;;;17.50;99.90;;;;;;4592418;19;20425;-76
2023/12/07 02:21:57;;;;;;;13.02;9.75;;;17.40;99.90;;;;;;4592300;19;20441;-76
2023/12/07 02:23:30;;;;;;;13.25;9.02;;;17.50;99.90;;;;;;4592013;19;20006;-76
2023/12/07 02:25:08;;;;;;;12.57;9.35;;;17.40;99.90;;;;;;4592239;19;19999;-77
2023/12/07 02:26:44;;;;;;;13.20;9.38;;;17.40;99.90;;;;;;4591996;19;20076;-76
2023/12/07 02:28:18;;;;;;;13.35;9.45;;;17.40;99.90;;;;;;4592630;19;20425;-77
2023/12/07 02:29:54;;;;;;;14.13;10.27;;;17.50;99.90;;;;;;4593147;19;20062;-76
2023/12/07 02:31:29;;;;;;;14.80;10.35;;;17.50;99.90;;;;;;4593393;19;20020;-76
2023/12/07 02:33:04;;;;;;;16.65;10.77;;;17.50;99.90;;;;;;4591759;19;20307;-77
2023/12/07 02:34:38;;;;;;;16.17;10.90;;;17.50;99.90;;;;;;4593087;19;20078;-76
2023/12/07 02:36:14;;;;;;;13.32;8.90;;;17.50;99.90;;;;;;4592474;19;20040;-76
2023/12/07 02:37:49;;;;;;;12.90;9.65;;;17.50;99.90;;;;;;4592680;19;20306;-76
2023/12/07 02:39:23;;;;;;;12.80;9.23;;;17.50;99.90;;;;;;4591969;19;20005;-76
2023/12/07 02:40:59;;;;;;;11.85;8.82;;;17.40;99.90;;;;;;4593022;19;20007;-76
2023/12/07 02:42:33;;;;;;;12.75;8.55;;;17.40;99.90;;;;;;4592954;19;20468;-76
2023/12/07 02:44:07;;;;;;;11.10;7.80;;;17.40;99.90;;;;;;4592847;19;20013;-76
2023/12/07 02:45:43;;;;;;;13.05;9.07;;;17.40;99.90;;;;;;4592930;19;20010;-76
2023/12/07 02:47:17;;;;;;;12.95;8.95;;;17.40;99.90;;;;;;4591755;19;20450;-76
2023/12/07 02:48:51;;;;;;;10.70;8.45;;;17.40;99.90;;;;;;4590918;19;20014;-76
2023/12/07 02:50:27;;;;;;;15.07;9.50;;;17.40;99.90;;;;;;4592494;19;20066;-75
2023/12/07 02:52:02;;;;;;;12.32;8.40;;;17.40;99.90;;;;;;4592979;19;19998;-76
2023/12/07 02:53:36;;;;;;;13.80;9.50;;;17.40;99.90;;;;;;4592673;19;20394;-76
2023/12/07 02:55:12;;;;;;;12.23;8.13;;;17.40;99.90;;;;;;4592920;19;20086;-76
2023/12/07 02:56:46;;;;;;;9.90;7.55;;;17.40;99.90;;;;;;4592863;19;20006;-76
2023/12/07 02:58:20;;;;;;;12.80;8.65;;;17.40;99.90;;;;;;4591318;19;20029;-75
2023/12/07 02:59:55;;;;;;;12.98;9.23;;;17.40;99.90;;;;;;4591158;19;20029;-76
2023/12/07 03:01:29;;;;;;;11.18;8.32;;;17.40;99.90;;;;;;4592588;19;20002;-76
2023/12/07 03:03:03;;;;;;;11.93;8.23;;;17.40;99.90;;;;;;4592465;19;20015;-76
2023/12/07 03:04:40;;;;;;;10.05;7.75;;;17.50;99.90;;;;;;4592514;19;20018;-76
2023/12/07 03:06:16;;;;;;;10.27;7.68;;;17.40;99.90;;;;;;4592595;19;20012;-76
2023/12/07 03:07:49;;;;;;;10.55;7.45;;;17.50;99.90;;;;;;4592631;19;20003;-76
2023/12/07 03:09:26;;;;;;;12.23;8.50;;;17.50;99.90;;;;;;4590409;19;20444;-76
2023/12/07 03:11:00;;;;;;;12.32;8.65;;;17.50;99.90;;;;;;4592488;19;20017;-77
2023/12/07 03:12:34;;;;;;;10.85;7.60;;;17.50;99.90;;;;;;4592475;19;19998;-76
2023/12/07 03:14:10;;;;;;;11.43;8.70;;;17.50;99.90;;;;;;4592577;19;20042;-76
2023/12/07 03:15:45;;;;;;;11.73;8.88;;;17.40;99.90;;;;;;4590835;19;20010;-76
2023/12/07 03:17:19;;;;;;;13.00;9.77;;;17.40;99.90;;;;;;4592201;19;20014;-76
2023/12/07 03:19:01;;;;;;;12.90;8.82;;;17.40;99.90;;;;;;4590599;19;20445;-76
2023/12/07 03:20:35;;;;;;;13.50;9.52;;;17.40;99.90;;;;;;4590993;19;20006;-76
2023/12/07 03:22:09;;;;;;;11.77;8.32;;;17.30;99.90;;;;;;4592090;19;20042;-76
2023/12/07 03:23:45;;;;;;;11.68;8.32;;;17.40;99.90;;;;;;4591006;19;20031;-76
2023/12/07 03:25:20;;;;;;;11.85;8.95;;;17.30;99.90;;;;;;4592123;19;20003;-76
2023/12/07 03:26:57;;;;;;;12.80;8.23;;;17.30;99.90;;;;;;4592060;19;20013;-76
2023/12/07 03:28:32;;;;;;;11.25;8.35;;;17.30;99.90;;;;;;4591710;19;20036;-76
2023/12/07 03:30:07;;;;;;;11.32;8.27;;;17.30;99.90;;;;;;4592073;19;20054;-77
2023/12/07 03:31:40;;;;;;;13.70;9.25;;;17.30;99.90;;;;;;4592058;19;20074;-77
2023/12/07 03:33:17;;;;;;;12.60;8.45;;;17.20;99.90;;;;;;4590773;19;20317;-77
2023/12/07 03:34:52;;;;;;;11.18;8.23;;;17.20;99.90;;;;;;4591930;19;20033;-76
2023/12/07 03:36:26;;;;;;;11.98;8.20;;;17.20;99.90;;;;;;4592230;19;20014;-76
2023/12/07 03:38:02;;;;;;;12.30;9.18;;;17.20;99.90;;;;;;4592056;19;20022;-76
2023/12/07 03:39:36;;;;;;;14.00;9.80;;;17.10;99.90;;;;;;4590597;19;20006;-76
2023/12/07 03:41:10;;;;;;;12.20;8.77;;;17.10;99.90;;;;;;4591864;19;20440;-77
2023/12/07 03:42:46;;;;;;;11.68;7.93;;;17.10;99.90;;;;;;4591886;19;20028;-77
2023/12/07 03:44:20;;;;;;;12.98;8.32;;;17.20;99.90;;;;;;4592071;19;20029;-77
2023/12/07 03:45:55;;;;;;;11.98;9.18;;;17.30;99.90;;;;;;4591816;19;19998;-77
2023/12/07 03:47:31;;;;;;;10.77;7.90;;;17.30;99.90;;;;;;4591834;19;20070;-77
2023/12/07 03:49:04;;;;;;;11.60;8.35;;;17.50;99.90;;;;;;4590881;19;20010;-77
2023/12/07 03:50:39;;;;;;;10.75;7.53;;;17.60;99.90;;;;;;4591768;19;20002;-76
2023/12/07 03:52:15;;;;;;;12.93;8.40;;;17.70;99.90;;;;;;4591755;19;20425;-76
2023/12/07 03:53:49;;;;;;;10.80;8.00;;;17.80;99.90;;;;;;4591921;19;20452;-77
2023/12/07 03:55:23;;;;;;;10.93;7.53;;;17.80;99.90;;;;;;4591909;19;20084;-77
2023/12/07 03:56:58;;;;;;;10.23;7.15;;;18.00;99.90;;;;;;4592365;19;20421;-77
2023/12/07 03:58:33;;;;;;;9.90;7.70;;;18.00;99.90;;;;;;4589587;19;20014;-76
2023/12/07 04:00:08;;;;;;;11.38;8.60;;;18.10;99.90;;;;;;4591157;19;20066;-77
2023/12/07 04:01:44;;;;;;;10.55;7.50;;;18.10;99.90;;;;;;4591622;19;20010;-76
2023/12/07 04:03:18;;;;;;;11.30;7.60;;;18.10;99.90;;;;;;4591509;19;20006;-76
2023/12/07 04:04:52;;;;;;;11.85;7.75;;;18.10;99.90;;;;;;4591491;19;20069;-76
2023/12/07 04:06:28;;;;;;;10.85;8.07;;;18.20;99.90;;;;;;4591523;19;20006;-76
2023/12/07 04:08:03;;;;;;;11.32;7.88;;;18.10;99.90;;;;;;4591470;19;20039;-76
2023/12/07 04:09:39;;;;;;;12.00;7.93;;;18.10;99.90;;;;;;4590290;19;20321;-76
2023/12/07 04:11:14;;;;;;;11.85;8.07;;;18.10;99.90;;;;;;4591460;19;20009;-76
2023/12/07 04:12:49;;;;;;;11.70;7.05;;;18.10;99.90;;;;;;4591633;19;20033;-77
2023/12/07 04:14:24;;;;;;;11.23;8.00;;;18.10;99.90;;;;;;4591662;19;20034;-76
2023/12/07 04:15:59;;;;;;;9.63;7.50;;;18.10;99.90;;;;;;4591647;19;20017;-76
2023/12/07 04:17:34;;;;;;;10.57;7.30;;;18.10;99.90;;;;;;4591310;19;20021;-75
2023/12/07 04:19:08;;;;;;;10.52;7.30;;;18.10;99.90;;;;;;4589828;19;20018;-76
2023/12/07 04:20:43;;;;;;;11.85;8.07;;;18.10;99.90;;;;;;4591729;19;20017;-76
2023/12/07 04:22:19;;;;;;;11.65;8.48;;;18.10;99.90;;;;;;4595219;19;20031;-76
2023/12/07 04:23:53;;;;;;;12.82;8.40;;;18.10;99.90;;;;;;4595983;19;20003;-76
2023/12/07 04:25:28;;;;;;;11.15;8.43;;;18.10;99.90;;;;;;4596099;19;20085;-77
2023/12/07 04:27:03;;;;;;;10.98;8.20;;;18.00;99.90;;;;;;4595670;19;20386;-76
2023/12/07 04:28:37;;;;;;;11.75;8.50;;;18.00;99.90;;;;;;4595306;19;20002;-76
2023/12/07 04:30:14;;;;;;;10.02;7.00;;;18.00;99.90;;;;;;4596447;19;20023;-76
2023/12/07 04:31:48;;;;;;;10.82;7.70;;;18.00;99.90;;;;;;4595851;19;20318;-76
2023/12/07 04:33:23;;;;;;;11.73;7.32;;;17.90;99.90;;;;;;4595833;19;20322;-77
2023/12/07 04:34:58;;;;;;;10.18;7.28;;;17.90;99.90;;;;;;4595638;19;20023;-77
2023/12/07 04:36:32;;;;;;;11.88;7.75;;;17.90;99.90;;;;;;4595546;19;20003;-76
2023/12/07 04:38:06;;;;;;;10.00;7.38;;;17.90;99.90;;;;;;4594158;19;20003;-76
2023/12/07 04:39:42;;;;;;;12.27;8.23;;;17.90;99.90;;;;;;4593878;19;20426;-76
2023/12/07 04:41:17;;;;;;;9.73;7.43;;;17.80;99.90;;;;;;4595436;19;20081;-77
2023/12/07 04:42:52;;;;;;;10.85;7.60;;;17.80;99.90;;;;;;4595357;19;20015;-77
2023/12/07 04:44:29;;;;;;;12.25;7.93;;;17.80;99.90;;;;;;4595685;19;20070;-77
2023/12/07 04:46:03;;;;;;;10.52;7.03;;;17.80;99.90;;;;;;4595295;19;20035;-76
2023/12/07 04:47:38;;;;;;;9.63;7.90;;;17.70;99.90;;;;;;4594182;19;20010;-76
2023/12/07 04:49:14;;;;;;;11.63;7.65;;;17.70;99.90;;;;;;4593757;19;20017;-77
2023/12/07 04:50:48;;;;;;;12.02;8.07;;;17.70;99.90;;;;;;4595497;19;20382;-77
2023/12/07 04:52:22;;;;;;;10.70;7.30;;;17.80;99.90;;;;;;4595460;19;20025;-76
2023/12/07 04:53:57;;;;;;;10.40;7.10;;;17.80;99.90;;;;;;4594631;19;20310;-76
2023/12/07 04:55:33;;;;;;;9.50;6.72;;;17.90;99.90;;;;;;4594820;19;19999;-76
2023/12/07 04:57:08;;;;;;;9.52;6.65;;;18.00;99.90;;;;;;4595100;19;20086;-75
2023/12/07 04:58:43;;;;;;;8.70;6.32;;;18.10;99.90;;;;;;4594351;19;20006;-78
2023/12/07 05:00:17;;;;;;;11.07;7.00;;;18.30;99.90;;;;;;4595016;19;20014;-77
2023/12/07 05:01:51;;;;;;;7.85;5.47;;;18.40;99.90;;;;;;4594908;19;20007;-77
2023/12/07 05:03:27;;;;;;;9.38;6.30;;;18.50;99.90;;;;;;4595514;19;20367;-77
2023/12/07 05:05:01;;;;;;;10.48;5.80;;;18.60;99.90;;;;;;4594985;19;20010;-77
2023/12/07 05:06:36;;;;;;;9.32;6.07;;;18.70;99.90;;;;;;4593659;19;20025;-77
2023/12/07 05:08:12;;;;;;;11.45;6.50;;;18.80;99.90;;;;;;4593934;19;20048;-78
2023/12/07 05:09:46;;;;;;;11.50;6.45;;;18.80;99.90;;;;;;4594553;19;19998;-78
2023/12/07 05:11:20;;;;;;;12.63;8.45;;;18.90;99.90;;;;;;4595111;19;20006;-78
2023/12/07 05:12:56;;;;;;;13.55;9.00;;;18.90;99.90;;;;;;4594814;19;20011;-79
2023/12/07 05:14:32;;;;;;;13.77;9.00;;;18.90;99.90;;;;;;4593453;19;20006;-77
2023/12/07 05:16:08;;;;;;;20.70;10.55;;;18.90;99.90;;;;;;4593410;19;20006;-77
2023/12/07 05:17:43;;;;;;;19.20;10.23;;;18.80;99.90;;;;;;4593473;19;20006;-80
2023/12/07 05:19:17;;;;;;;23.58;11.18;;;18.70;99.90;;;;;;4592882;19;20011;-78
2023/12/07 05:20:52;;;;;;;24.05;11.02;;;18.60;99.90;;;;;;4594878;19;19999;-79
2023/12/07 05:22:27;;;;;;;22.33;11.00;;;18.60;99.90;;;;;;4594870;19;20006;-78
2023/12/07 05:24:01;;;;;;;24.45;12.02;;;18.60;99.90;;;;;;4594591;19;20025;-78
2023/12/07 05:25:35;;;;;;;24.70;12.02;;;18.50;99.90;;;;;;4593170;19;20074;-78
2023/12/07 05:27:11;;;;;;;22.05;12.32;;;18.60;99.90;;;;;;4594234;19;20011;-78
2023/12/07 05:28:46;;;;;;;22.00;13.38;;;18.60;99.90;;;;;;4594026;19;20002;-77
2023/12/07 05:30:20;;;;;;;21.80;11.48;;;18.70;99.90;;;;;;4594662;19;20003;-78
2023/12/07 05:31:56;;;;;;;19.80;11.40;;;18.80;99.90;;;;;;4594389;19;20002;-78
2023/12/07 05:33:30;;;;;;;20.95;11.68;;;18.90;99.90;;;;;;4594401;19;20025;-78
2023/12/07 05:35:04;;;;;;;23.05;12.02;;;19.00;99.90;;;;;;4593252;19;20018;-78
2023/12/07 05:36:40;;;;;;;23.20;12.98;;;19.20;99.90;;;;;;4594095;19;20460;-78
2023/12/07 05:38:14;;;;;;;21.40;11.68;;;19.40;99.90;;;;;;4592750;19;20070;-78
2023/12/07 05:39:48;;;;;;;22.23;12.60;;;19.50;99.90;;;;;;4592731;19;20007;-78
2023/12/07 05:41:25;;;;;;;19.92;11.85;;;19.60;99.90;;;;;;4594516;19;20009;-77
2023/12/07 05:42:59;;;;;;;22.95;12.80;;;19.70;99.90;;;;;;4594191;19;20006;-77
2023/12/07 05:44:34;;;;;;;24.90;12.25;;;19.80;99.90;;;;;;4594434;19;20390;-78
2023/12/07 05:46:10;;;;;;;22.70;11.55;;;19.90;99.90;;;;;;4594186;19;20015;-77
2023/12/07 05:47:44;;;;;;;25.08;12.02;;;20.00;99.90;;;;;;4594332;19;20013;-78
2023/12/07 05:49:19;;;;;;;23.77;11.95;;;20.10;99.90;;;;;;4593179;19;20006;-78
2023/12/07 05:50:55;;;;;;;24.63;13.00;;;20.10;99.90;;;;;;4594356;19;20011;-78
2023/12/07 05:52:29;;;;;;;23.13;11.65;;;20.20;99.90;;;;;;4594005;19;20007;-78
2023/12/07 05:54:04;;;;;;;20.98;11.55;;;20.20;99.90;;;;;;4593901;19;20006;-78
2023/12/07 05:55:40;;;;;;;25.02;11.90;;;20.30;99.90;;;;;;4592666;19;20002;-79
2023/12/07 05:57:15;;;;;;;23.30;11.40;;;20.30;99.90;;;;;;4593506;19;20029;-78
2023/12/07 05:58:49;;;;;;;22.52;12.23;;;20.40;99.90;;;;;;4593025;19;20006;-78
2023/12/07 06:00:25;;;;;;;22.95;11.38;;;20.40;99.90;;;;;;4593927;19;20007;-78
2023/12/07 06:01:59;;;;;;;19.63;10.70;;;20.40;99.90;;;;;;4592499;19;20002;-78
2023/12/07 06:03:33;;;;;;;21.83;11.57;;;20.40;99.90;;;;;;4593651;19;19999;-77
2023/12/07 06:05:08;;;;;;;18.25;10.88;;;20.40;99.90;;;;;;4593773;19;20012;-77
2023/12/07 06:06:42;;;;;;;18.45;11.18;;;20.40;99.90;;;;;;4593691;19;19999;-77
2023/12/07 06:08:17;;;;;;;21.25;10.52;;;20.30;99.90;;;;;;4592057;19;20070;-77
2023/12/07 06:09:52;;;;;;;20.13;11.00;;;20.30;99.90;;;;;;4593261;19;20013;-77
2023/12/07 06:11:28;;;;;;;22.20;11.52;;;20.20;99.90;;;;;;4592233;19;19998;-77
2023/12/07 06:13:03;;;;;;;20.27;11.13;;;20.10;99.90;;;;;;4593382;19;20006;-77
2023/12/07 06:14:38;;;;;;;19.60;12.20;;;20.10;99.90;;;;;;4593861;19;20007;-77
2023/12/07 06:16:18;;;;;;;22.08;11.95;;;20.00;99.90;;;;;;4593675;19;20062;-77
2023/12/07 06:17:53;;;;;;;21.02;12.68;;;19.90;99.90;;;;;;4593772;19;20069;-78
2023/12/07 06:19:28;;;;;;;24.65;11.98;;;19.90;99.90;;;;;;4591931;19;20074;-77
2023/12/07 06:21:03;;;;;;;25.83;13.15;;;19.80;99.90;;;;;;4593315;19;20006;-77
2023/12/07 06:22:37;;;;;;;26.23;12.75;;;19.70;99.90;;;;;;4593290;19;20005;-77
2023/12/07 06:24:12;;;;;;;23.27;12.60;;;19.60;99.90;;;;;;4593271;19;20025;-77
2023/12/07 06:25:49;;;;;;;21.92;11.60;;;19.60;99.90;;;;;;4591886;19;20020;-77
2023/12/07 06:27:23;;;;;;;20.67;12.70;;;19.50;99.90;;;;;;4592834;19;20032;-77
2023/12/07 06:28:59;;;;;;;28.40;13.80;;;19.40;99.90;;;;;;4592857;19;20006;-77
2023/12/07 06:30:34;;;;;;;22.77;12.13;;;19.40;99.90;;;;;;4593181;19;20003;-77
2023/12/07 06:32:08;;;;;;;24.25;14.10;;;19.30;99.90;;;;;;4593564;19;20010;-77
2023/12/07 06:33:43;;;;;;;23.83;12.73;;;19.30;99.90;;;;;;4593210;19;20015;-77
2023/12/07 06:35:17;;;;;;;22.45;12.48;;;19.20;99.90;;;;;;4593009;19;19999;-77
2023/12/07 06:36:51;;;;;;;25.73;12.45;;;19.10;99.90;;;;;;4593297;19;20002;-77
2023/12/07 06:38:26;;;;;;;25.75;13.00;;;19.10;99.90;;;;;;4592923;19;20302;-77
2023/12/07 06:40:01;;;;;;;22.80;12.88;;;19.00;99.90;;;;;;4592113;19;20003;-77
2023/12/07 06:41:35;;;;;;;21.95;12.35;;;19.00;99.90;;;;;;4592913;19;20004;-77
2023/12/07 06:43:11;;;;;;;22.70;12.35;;;18.90;99.90;;;;;;4591476;19;20010;-77
2023/12/07 06:44:49;;;;;;;23.80;12.02;;;18.80;99.90;;;;;;4591138;19;19998;-77
2023/12/07 06:46:23;;;;;;;24.05;13.48;;;18.80;99.90;;;;;;4591852;19;20073;-77
2023/12/07 06:47:58;;;;;;;21.42;12.50;;;18.70;99.90;;;;;;4592828;19;20034;-77
2023/12/07 06:49:34;;;;;;;21.48;12.50;;;18.70;99.90;;;;;;4591922;19;20029;-77
2023/12/07 06:51:08;;;;;;;24.02;12.50;;;18.60;99.90;;;;;;4592700;19;20002;-77
2023/12/07 06:52:44;;;;;;;23.30;11.68;;;18.60;99.90;;;;;;4592820;19;20007;-77
2023/12/07 06:54:19;;;;;;;29.63;13.98;;;18.50;99.90;;;;;;4592656;19;20002;-78
2023/12/07 06:55:53;;;;;;;22.48;11.88;;;18.50;99.90;;;;;;4592705;19;19998;-77
2023/12/07 06:57:29;;;;;;;22.08;11.90;;;18.50;99.90;;;;;;4592705;19;20029;-77
2023/12/07 06:59:03;;;;;;;22.48;12.38;;;18.40;99.90;;;;;;4590732;19;20337;-77
2023/12/07 07:00:37;;;;;;;23.85;13.20;;;18.40;99.90;;;;;;4592144;19;20015;-77
2023/12/07 07:02:13;;;;;;;23.20;12.15;;;18.30;99.90;;;;;;4592662;19;19998;-77
2023/12/07 07:03:47;;;;;;;20.40;11.35;;;18.30;99.90;;;;;;4592479;19;20333;-77
2023/12/07 07:05:22;;;;;;;24.55;12.27;;;18.20;99.90;;;;;;4592446;19;20034;-77
2023/12/07 07:06:57;;;;;;;20.00;11.63;;;18.20;99.90;;;;;;4592560;19;20456;-77
2023/12/07 07:08:32;;;;;;;21.35;11.40;;;18.20;99.90;;;;;;4592006;19;20089;-76
2023/12/07 07:10:09;;;;;;;23.55;11.75;;;18.10;99.90;;;;;;4592677;19;20007;-77
2023/12/07 07:11:49;;;;;;;23.65;12.35;;;18.00;99.90;;;;;;4592719;19;20022;-79
2023/12/07 07:13:24;;;;;;;20.85;11.63;;;18.00;99.90;;;;;;4591616;19;20009;-77
2023/12/07 07:14:58;;;;;;;19.20;11.45;;;18.00;99.90;;;;;;4592229;19;19998;-76
2023/12/07 07:16:36;;;;;;;21.27;11.70;;;18.00;99.90;;;;;;4592581;19;20098;-75
2023/12/07 07:18:09;;;;;;;21.88;10.98;;;17.90;99.90;;;;;;4590761;19;20006;-76
2023/12/07 07:19:44;;;;;;;20.67;11.70;;;17.90;99.90;;;;;;4590476;19;20429;-76
2023/12/07 07:21:22;;;;;;;20.05;11.18;;;17.90;99.90;;;;;;4592305;19;19999;-75
2023/12/07 07:22:56;;;;;;;17.20;9.60;;;17.90;99.90;;;;;;4592430;19;20002;-75
2023/12/07 07:24:30;;;;;;;21.30;11.40;;;17.90;99.90;;;;;;4591112;19;20006;-75
2023/12/07 07:26:05;;;;;;;21.48;11.38;;;17.90;99.90;;;;;;4590779;19;20005;-76
2023/12/07 07:27:39;;;;;;;14.13;9.98;;;17.90;99.90;;;;;;4591736;19;20033;-74
2023/12/07 07:29:13;;;;;;;35.70;26.83;;;17.50;97.90;;;;;;4591060;19;20006;-74
2023/12/07 07:30:48;;;;;;;36.15;25.95;;;17.00;95.70;;;;;;4591999;19;20011;-74
2023/12/07 07:32:22;;;;;;;34.67;26.65;;;16.70;95.10;;;;;;4591913;19;20310;-73
2023/12/07 07:33:56;;;;;;;35.55;25.40;;;16.50;94.80;;;;;;4591992;19;20313;-73
2023/12/07 07:35:32;;;;;;;32.10;24.55;;;16.30;94.50;;;;;;4592034;19;20002;-74
2023/12/07 07:37:11;;;;;;;38.47;27.50;;;16.20;94.30;;;;;;4591874;19;20007;-73
2023/12/07 07:38:46;;;;;;;42.30;27.95;;;16.00;94.20;;;;;;4591247;19;20019;-74
2023/12/07 07:40:22;;;;;;;45.65;31.33;;;15.90;94.00;;;;;;4591954;19;20006;-74
2023/12/07 07:41:55;;;;;;;53.67;35.35;;;15.90;93.90;;;;;;4591793;19;20430;-74
2023/12/07 07:43:30;;;;;;;72.75;45.17;;;15.80;93.80;;;;;;4590331;19;20010;-74
2023/12/07 07:45:05;;;;;;;75.10;43.60;;;15.70;93.80;;;;;;4591476;19;20078;-73
2023/12/07 07:46:41;;;;;;;64.45;39.60;;;15.70;93.70;;;;;;4591714;19;20008;-75
2023/12/07 07:48:16;;;;;;;57.70;35.53;;;15.60;93.60;;;;;;4591540;19;20435;-77
2023/12/07 07:49:51;;;;;;;52.53;33.95;;;15.60;93.50;;;;;;4591791;19;20354;-76
2023/12/07 07:51:26;;;;;;;54.97;33.33;;;15.60;93.50;;;;;;4591617;19;20003;-78
2023/12/07 07:53:00;;;;;;;49.92;32.90;;;15.50;93.40;;;;;;4591672;19;20013;-76
2023/12/07 07:54:36;;;;;;;46.08;32.50;;;15.50;93.30;;;;;;4592139;19;20019;-75
2023/12/07 07:56:11;;;;;;;37.78;28.38;;;15.40;93.30;;;;;;4595329;19;20066;-74
2023/12/07 07:57:45;;;;;;;35.85;27.08;;;15.40;93.30;;;;;;4596274;19;20006;-74
2023/12/07 07:59:22;;;;;;;33.53;26.25;;;15.40;93.10;;;;;;4594928;19;20042;-74
2023/12/07 08:00:56;;;;;;;39.17;28.23;;;15.30;93.10;;;;;;4596296;19;20002;-74
2023/12/07 08:02:30;;;;;;;35.80;27.98;;;15.30;93.10;;;;;;4596204;19;20074;-77
2023/12/07 08:04:07;;;;;;;39.67;29.52;;;15.30;93.00;;;;;;4596121;19;20003;-74
2023/12/07 08:05:41;;;;;;;38.67;28.42;;;15.20;93.00;;;;;;4596142;19;20002;-74
2023/12/07 08:07:16;;;;;;;35.20;25.95;;;15.30;93.00;;;;;;4596354;19;20016;-74
2023/12/07 08:08:51;;;;;;;39.28;27.83;;;15.20;92.90;;;;;;4595459;19;20006;-74
2023/12/07 08:10:26;;;;;;;36.45;27.27;;;15.20;92.80;;;;;;4595988;19;20062;-77
2023/12/07 08:12:01;;;;;;;36.70;26.50;;;15.20;92.80;;;;;;4594548;19;20010;-80
2023/12/07 08:13:39;;;;;;;37.55;27.52;;;15.10;92.80;;;;;;4595649;19;20021;-80
2023/12/07 08:15:14;;;;;;;39.90;27.98;;;15.10;92.80;;;;;;4596301;19;20026;-80
2023/12/07 08:16:49;;;;;;;37.97;27.48;;;15.10;92.70;;;;;;4594862;19;20313;-78
2023/12/07 08:18:24;;;;;;;36.47;26.95;;;15.00;92.70;;;;;;4594857;19;20014;-79
2023/12/07 08:19:59;;;;;;;35.72;26.63;;;15.00;92.50;;;;;;4594414;19;20010;-80
2023/12/07 08:21:34;;;;;;;37.80;27.00;;;15.00;92.50;;;;;;4595820;19;20003;-80
2023/12/07 08:23:10;;;;;;;36.95;27.45;;;15.00;92.50;;;;;;4596088;19;20066;-80